Aullville, Missouri
Current Conditions -  °F | °C
As of 1:55 PM on Wednesday 26 Nov 2014 (Local Time) from KRCM Reporting Station
Overcast Overcast  
Wind Chill: 32°   Ceiling: 2900
Heat Index: 41°   Visibility: 10mi
Dew Point: 32°   Wind: 21mph
Humidity: 70%   Direction: 280°W
Pressure: 30.01"   Gusts: 28mph
Location:  39.0541°N, 93.6618°W
Report Text: KRCM 261955Z AUTO 28018G24KT 10SM OVC029 05/00 A3001 RMK AO2
Loading
Personal Weather Stations






























Interactive Weather Map New forecast layout! Learn more

10-Day Weather Forecast

Advertisements
Track Severe Weather on mobile